Orbital elements of SL-8 R/B
| Launched | 19 December 1994 |
| Flight ended | – |
| Launch site | Plesetsk Missile and Space Complex, Russia |
| Owner | Commonwealth of Independent States (former USSR) |
| NORAD ID | 23432 |
| Date fetched |
Epoch osculation |
Inc. [°] |
Ecc. | RA asc node [hr] |
Arg Peri. [°] |
Mean anom [°] |
Mean motion [rev/day] |
Abs. mag |
| Date fetched |
Epoch osculation |
Inc. [°] |
Ecc. | RA asc node [hr] |
Arg Peri. [°] |
Mean anom [°] |
Mean motion [rev/day] |
Abs. mag |
| 2026 May 07 17:58 | 2026 May 05 10:36:53 | 74.0297 | 0.00067 | 8.1887 | 267.0994 | 254.0423 | 14.34452 | 5.243 |
| 2026 May 06 17:57 | 2026 May 05 10:36:53 | 74.0297 | 0.00067 | 8.1887 | 267.0994 | 254.0423 | 14.34452 | 5.243 |
| 2026 May 05 17:57 | 2026 May 05 10:36:53 | 74.0297 | 0.00067 | 8.1887 | 267.0994 | 254.0423 | 14.34452 | 5.243 |
| 2026 May 04 17:57 | 2026 Apr 30 11:33:09 | 74.0297 | 0.00067 | 8.7945 | 275.6881 | 254.0423 | 14.34452 | 5.243 |
| 2026 May 03 17:57 | 2026 Apr 30 11:33:09 | 74.0297 | 0.00067 | 8.7945 | 275.6881 | 254.0423 | 14.34452 | 5.243 |
| 2026 May 02 17:57 | 2026 Apr 30 11:33:09 | 74.0297 | 0.00067 | 8.7945 | 275.6881 | 254.0423 | 14.34452 | 5.243 |
| 2026 May 01 17:56 | 2026 Apr 30 11:33:09 | 74.0297 | 0.00067 | 8.7945 | 275.6881 | 254.0423 | 14.34452 | 5.243 |
| 2026 Apr 30 17:56 | 2026 Apr 30 11:33:09 | 74.0297 | 0.00067 | 8.7945 | 275.6881 | 254.0423 | 14.34452 | 5.243 |
| 2026 Apr 29 17:57 | 2026 Apr 24 13:17:34 | 74.0302 | 0.00067 | 9.5183 | 285.9108 | 254.0423 | 14.34452 | 5.243 |
| 2026 Apr 28 17:56 | 2026 Apr 24 13:17:34 | 74.0302 | 0.00067 | 9.5183 | 285.9108 | 254.0423 | 14.34452 | 5.243 |
| 2026 Apr 27 17:58 | 2026 Apr 24 13:17:34 | 74.0302 | 0.00067 | 9.5183 | 285.9108 | 254.0423 | 14.34452 | 5.243 |
| 2026 Apr 26 17:58 | 2026 Apr 24 13:17:34 | 74.0302 | 0.00067 | 9.5183 | 285.9108 | 254.0423 | 14.34452 | 5.243 |
| 2026 Apr 25 17:58 | 2026 Apr 24 13:17:34 | 74.0302 | 0.00067 | 9.5183 | 285.9108 | 254.0423 | 14.34452 | 5.243 |
| 2026 Apr 24 17:59 | 2026 Apr 24 13:17:34 | 74.0302 | 0.00067 | 9.5183 | 285.9108 | 254.0423 | 14.34452 | 5.243 |
| 2026 Apr 23 17:57 | 2026 Apr 19 08:56:47 | 74.0310 | 0.00066 | 10.1510 | 294.9232 | 254.0423 | 14.34452 | 5.243 |
| 2026 Apr 22 17:57 | 2026 Apr 19 08:56:47 | 74.0310 | 0.00066 | 10.1510 | 294.9232 | 254.0423 | 14.34452 | 5.243 |
| 2026 Apr 21 17:57 | 2026 Apr 19 08:56:47 | 74.0310 | 0.00066 | 10.1510 | 294.9232 | 254.0423 | 14.34452 | 5.243 |
| 2026 Apr 20 17:57 | 2026 Apr 19 08:56:47 | 74.0310 | 0.00066 | 10.1510 | 294.9232 | 254.0423 | 14.34452 | 5.243 |
| 2026 Apr 19 17:58 | 2026 Apr 19 08:56:47 | 74.0310 | 0.00066 | 10.1510 | 294.9232 | 254.0423 | 14.34452 | 5.243 |
| 2026 Apr 18 17:56 | 2026 Apr 13 05:53:15 | 74.0317 | 0.00064 | 10.8991 | 305.7504 | 254.0423 | 14.34452 | 5.243 |
| 2026 Apr 16 17:57 | 2026 Apr 13 05:53:15 | 74.0317 | 0.00064 | 10.8991 | 305.7504 | 254.0423 | 14.34452 | 5.243 |
| 2026 Apr 14 17:57 | 2026 Apr 13 05:53:15 | 74.0317 | 0.00064 | 10.8991 | 305.7504 | 254.0423 | 14.34452 | 5.243 |
| 2026 Apr 13 17:57 | 2026 Apr 13 05:53:15 | 74.0317 | 0.00064 | 10.8991 | 305.7504 | 254.0423 | 14.34452 | 5.243 |
| 2026 Apr 12 17:57 | 2026 Apr 08 13:57:10 | 74.0326 | 0.00063 | 11.4686 | 314.1012 | 254.0423 | 14.34452 | 5.243 |
| 2026 Apr 11 17:57 | 2026 Apr 08 13:57:10 | 74.0326 | 0.00063 | 11.4686 | 314.1012 | 254.0423 | 14.34452 | 5.243 |
| 2026 Apr 10 17:58 | 2026 Apr 08 13:57:10 | 74.0326 | 0.00063 | 11.4686 | 314.1012 | 254.0423 | 14.34452 | 5.243 |